Alburgh, New York
Current Conditions -  °F | °C
As of 1:11 PM on Sunday 21 Dec 2014 (Local Time) from KMSS Reporting Station
Haze Haze  
Wind Chill: 12°   Ceiling: 7500
Heat Index: 21°   Visibility: 6mi
Dew Point: 15°   Wind: 7mph
Humidity: 78%   Direction: 70°ENE
Pressure: 30.35"   Gusts: NA
Location:  44.8293°N, 74.5271°W
Report Text: KMSS 211811Z AUTO 07006KT 6SM HZ SCT025 BKN075 M06/M09 A3035 RMK AO2 T10611094
Loading
Personal Weather Stations






























Interactive Weather Map New forecast layout! Learn more

10-Day Weather Forecast

Advertisements
Track Severe Weather on mobile